Time;durP1;ratioP1;P1;durP2;ratioP2;P2;SDS_P1;SDS_P2;PMS_P1;PMS_P2;Temp;Humidity;BMP_temperature;BMP_pressure;BME280_temperature;BME280_humidity;BME280_pressure;Samples;Min_cycle;Max_cycle;Signal;HPM_P1;HPM_P2
2023/04/08 05:46:21;;;;;;;51.53;28.27;;;5.90;99.90;;;;;;6026177;23;20024;-92
2023/04/08 05:53:13;;;;;;;52.47;28.55;;;6.10;99.90;;;;;;5989823;24;20031;-93
2023/04/08 06:09:46;;;;;;;41.65;25.85;;;6.80;99.90;;;;;;5980857;23;20030;-90
2023/04/08 06:12:53;;;;;;;39.22;24.10;;;6.90;99.90;;;;;;6023426;23;20352;-92
2023/04/08 06:16:16;;;;;;;39.13;23.42;;;6.90;99.90;;;;;;6031993;23;20300;-90
2023/04/08 06:19:07;;;;;;;33.08;21.95;;;7.00;99.90;;;;;;6199583;23;20076;-91
2023/04/08 06:42:19;;;;;;;18.42;12.38;;;7.30;1.00;;;;;;6211935;23;20040;-89
2023/04/08 06:45:16;;;;;;;20.13;13.75;;;7.30;55.70;;;;;;6198540;23;20039;-90
2023/04/08 06:48:28;;;;;;;18.00;12.77;;;7.30;99.90;;;;;;6218720;23;20655;-92
2023/04/08 06:52:13;;;;;;;;;;;;;;;;;;;;;
2023/04/08 06:55:47;;;;;;;20.52;13.48;;;7.30;99.90;;;;;;6067858;23;20023;-92
2023/04/08 06:59:21;;;;;;;;;;;;;;;;;;;;;
2023/04/08 07:02:37;;;;;;;20.00;13.68;;;7.30;92.90;;;;;;6059243;23;20023;-91
2023/04/08 07:05:31;;;;;;;19.58;13.70;;;7.30;1.00;;;;;;6067765;23;20492;-92
2023/04/08 07:08:29;;;;;;;20.45;13.73;;;7.40;1.00;;;;;;6031615;23;20027;-91
2023/04/08 07:11:34;;;;;;;18.02;13.25;;;7.60;1.00;;;;;;6073509;23;20028;-90
2023/04/08 07:15:21;;;;;;;;;;;;;;;;;;;;;
2023/04/08 07:19:13;;;;;;;18.55;12.13;;;7.90;99.90;;;;;;6217161;23;20021;-91
2023/04/08 07:26:28;;;;;;;14.40;11.23;;;8.10;99.90;;;;;;6209904;23;20020;-91
2023/04/08 07:41:51;;;;;;;15.10;10.10;;;8.00;1.00;;;;;;6035968;23;20057;-92
2023/04/08 07:45:20;;;;;;;13.88;10.38;;;7.70;1.00;;;;;;6039153;23;20054;-91
2023/04/08 07:52:52;;;;;;;14.38;9.70;;;7.60;1.00;;;;;;6043474;23;20134;-92
2023/04/08 07:55:41;;;;;;;16.42;10.57;;;7.70;27.60;;;;;;6016205;23;20027;-91
2023/04/08 07:58:46;;;;;;;14.18;10.40;;;7.80;45.80;;;;;;6055907;23;20033;-90
2023/04/08 08:01:38;;;;;;;16.30;10.30;;;7.90;16.00;;;;;;6135082;23;20064;-92
2023/04/08 08:04:27;;;;;;;13.50;10.07;;;8.00;8.90;;;;;;6132621;23;20072;-90
2023/04/08 08:07:15;;;;;;;13.90;10.52;;;8.10;1.00;;;;;;6130600;23;20022;-91
2023/04/08 08:10:04;;;;;;;14.88;10.55;;;8.30;1.00;;;;;;6175075;23;20024;-93
2023/04/08 08:13:15;;;;;;;16.42;11.02;;;8.40;1.00;;;;;;6202923;23;20013;-91
2023/04/08 08:16:10;;;;;;;12.57;9.77;;;8.50;99.90;;;;;;6218222;23;20090;-92
2023/04/08 08:27:13;;;;;;;13.10;9.77;;;9.60;99.90;;;;;;6127568;23;20063;-92
2023/04/08 08:30:10;;;;;;;14.27;8.88;;;9.80;1.00;;;;;;6127315;23;20053;-90
2023/04/08 08:33:03;;;;;;;15.95;10.05;;;9.80;1.00;;;;;;6136053;23;20093;-91
2023/04/08 08:36:56;;;;;;;;;;;;;;;;;;;;;
2023/04/08 08:40:40;;;;;;;12.38;9.70;;;10.00;1.00;;;;;;6053744;23;20031;-92
2023/04/08 08:43:37;;;;;;;16.42;10.55;;;10.30;99.90;;;;;;6031567;23;20119;-93
2023/04/08 08:46:47;;;;;;;12.88;10.18;;;10.30;99.90;;;;;;5955525;23;20029;-91
2023/04/08 08:50:16;;;;;;;18.08;10.32;;;10.40;99.90;;;;;;6048225;23;20035;-91
2023/04/08 08:53:30;;;;;;;16.13;10.43;;;10.40;99.90;;;;;;6046974;23;20038;-92
2023/04/08 09:21:05;;;;;;;;;;;;;;;;;;;;;
2023/04/08 09:37:12;;;;;;;14.18;10.82;;;13.30;99.90;;;;;;5923384;24;20021;-87
2023/04/08 09:40:15;;;;;;;13.82;10.90;;;13.70;99.90;;;;;;6014660;23;20084;-94
2023/04/08 09:43:05;;;;;;;13.05;11.57;;;14.20;99.90;;;;;;6092430;23;20026;-92
2023/04/08 09:46:03;;;;;;;15.07;11.82;;;14.10;99.90;;;;;;6137707;23;20041;-91
2023/04/08 09:49:08;;;;;;;13.20;10.13;;;14.20;99.90;;;;;;6157153;23;20024;-92
2023/04/08 09:52:07;;;;;;;12.88;10.40;;;14.20;99.90;;;;;;6223922;23;20035;-91
2023/04/08 09:55:08;;;;;;;14.02;10.60;;;14.10;99.90;;;;;;6234646;23;20099;-90
2023/04/08 09:58:00;;;;;;;15.40;10.88;;;14.20;99.90;;;;;;6209892;23;20061;-90
2023/04/08 10:00:51;;;;;;;14.90;11.07;;;14.30;99.90;;;;;;6225931;23;20039;-90
2023/04/08 10:03:44;;;;;;;14.05;11.65;;;13.70;99.90;;;;;;6226351;23;20029;-90
2023/04/08 10:06:33;;;;;;;16.63;11.65;;;13.60;99.90;;;;;;6199485;23;20404;-91
2023/04/08 10:09:26;;;;;;;13.82;11.05;;;13.50;99.90;;;;;;6216491;23;20025;-90
2023/04/08 10:12:16;;;;;;;15.18;11.15;;;13.90;99.90;;;;;;6195248;23;20031;-88
2023/04/08 10:15:26;;;;;;;15.85;11.95;;;13.80;99.90;;;;;;6216144;23;20028;-90
2023/04/08 10:18:13;;;;;;;13.48;10.70;;;13.50;99.90;;;;;;6218292;23;20054;-91
2023/04/08 10:21:01;;;;;;;17.67;12.07;;;14.20;99.90;;;;;;6197355;23;20045;-87
2023/04/08 10:23:59;;;;;;;17.90;11.70;;;14.50;99.90;;;;;;6217347;23;20116;-91
2023/04/08 10:26:49;;;;;;;14.02;11.27;;;14.40;99.90;;;;;;6214786;23;20416;-89
2023/04/08 10:29:36;;;;;;;16.17;11.82;;;14.00;99.90;;;;;;6216799;23;20021;-91
2023/04/08 10:32:29;;;;;;;16.02;11.52;;;13.70;99.90;;;;;;6199072;23;20098;-92
2023/04/08 10:35:16;;;;;;;16.45;12.68;;;13.70;99.90;;;;;;6196605;23;20020;-91
2023/04/08 10:38:08;;;;;;;14.20;10.35;;;13.70;99.90;;;;;;6218600;23;20039;-91
2023/04/08 10:40:56;;;;;;;15.40;11.65;;;14.00;99.90;;;;;;6195162;23;20043;-91
2023/04/08 10:43:46;;;;;;;16.08;11.70;;;14.30;99.90;;;;;;6219610;23;20381;-91
2023/04/08 10:46:37;;;;;;;13.18;10.20;;;15.00;99.90;;;;;;6195200;23;20044;-89
2023/04/08 10:49:33;;;;;;;13.13;10.57;;;15.90;99.90;;;;;;6218870;23;20034;-89
2023/04/08 10:52:31;;;;;;;14.75;10.82;;;15.80;99.90;;;;;;6215823;23;20111;-90
2023/04/08 10:55:33;;;;;;;13.82;10.80;;;15.60;99.90;;;;;;6217954;23;20400;-87
2023/04/08 10:58:31;;;;;;;13.73;11.15;;;15.30;99.90;;;;;;6229818;23;20042;-89
2023/04/08 11:01:18;;;;;;;15.75;11.70;;;14.10;94.00;;;;;;6230884;23;20024;-89
2023/04/08 11:04:12;;;;;;;17.65;12.48;;;13.30;97.90;;;;;;6228603;23;20032;-88
2023/04/08 11:07:07;;;;;;;16.35;13.02;;;12.70;99.90;;;;;;6228875;23;20055;-88
2023/04/08 11:09:54;;;;;;;17.33;12.32;;;11.90;99.90;;;;;;6229758;23;20024;-91
2023/04/08 11:12:45;;;;;;;18.60;12.98;;;12.00;99.90;;;;;;6234285;23;20033;-88
2023/04/08 11:15:35;;;;;;;20.88;12.88;;;11.80;99.90;;;;;;6234747;23;20029;-90
2023/04/08 11:19:08;;;;;;;;;;;11.90;99.90;;;;;;6111104;23;20620;-91
2023/04/08 11:22:32;;;;;;;16.55;12.15;;;12.10;99.90;;;;;;6118330;23;19916;-88
2023/04/08 11:29:43;;;;;;;17.45;13.27;;;11.30;99.90;;;;;;6031641;23;20275;-86
2023/04/08 11:32:41;;;;;;;18.25;13.18;;;11.20;99.90;;;;;;6234808;23;20092;-91
2023/04/08 11:35:31;;;;;;;17.63;13.52;;;11.10;99.90;;;;;;6216006;23;20024;-91
2023/04/08 11:38:23;;;;;;;19.65;13.98;;;11.00;99.90;;;;;;6237930;23;20016;-90
2023/04/08 11:41:13;;;;;;;18.33;13.75;;;10.70;99.90;;;;;;6217826;23;20028;-89
2023/04/08 11:44:00;;;;;;;18.27;12.68;;;10.50;99.90;;;;;;6239877;23;20016;-90
2023/04/08 11:46:55;;;;;;;17.58;12.48;;;10.40;99.90;;;;;;6238989;23;20036;-89
2023/04/08 11:49:44;;;;;;;18.95;14.25;;;10.30;99.90;;;;;;6224398;23;20016;-89
2023/04/08 11:56:47;;;;;;;20.50;14.52;;;10.10;99.90;;;;;;6223228;23;20008;-89
2023/04/08 11:59:42;;;;;;;19.65;14.80;;;10.10;99.90;;;;;;6224382;23;20044;-89
2023/04/08 12:02:29;;;;;;;19.33;15.15;;;10.10;99.90;;;;;;6204193;23;20016;-89
2023/04/08 12:05:17;;;;;;;21.08;15.35;;;10.20;99.90;;;;;;6226177;23;20024;-88
2023/04/08 12:08:05;;;;;;;20.23;15.32;;;10.10;99.90;;;;;;6215470;23;20021;-87
2023/04/08 12:10:56;;;;;;;19.17;13.73;;;10.10;99.90;;;;;;6196021;23;20035;-89
2023/04/08 12:13:59;;;;;;;19.33;14.20;;;10.20;99.90;;;;;;6216226;23;20103;-91
2023/04/08 12:16:48;;;;;;;19.23;13.57;;;10.40;99.90;;;;;;6192979;23;20091;-90
2023/04/08 12:19:38;;;;;;;21.35;13.90;;;10.50;99.90;;;;;;6217491;23;20099;-90
2023/04/08 12:22:28;;;;;;;19.70;13.90;;;10.50;99.90;;;;;;6214977;23;20038;-90
2023/04/08 12:25:18;;;;;;;18.73;14.18;;;10.60;99.90;;;;;;6214170;23;20028;-90
2023/04/08 12:28:08;;;;;;;17.33;13.38;;;10.70;99.90;;;;;;6216277;23;20032;-91
2023/04/08 12:31:00;;;;;;;22.65;13.77;;;10.90;99.90;;;;;;6198191;23;20025;-90
2023/04/08 12:33:50;;;;;;;;;;;10.80;99.90;;;;;;6219928;23;20031;-89
2023/04/08 12:36:46;;;;;;;24.58;12.75;;;10.70;99.90;;;;;;6220992;23;20181;-91
2023/04/08 12:39:37;;;;;;;18.65;13.68;;;10.70;99.90;;;;;;6198474;23;20110;-92
2023/04/08 12:42:26;;;;;;;18.80;13.63;;;10.70;99.90;;;;;;6179411;23;20028;-90
2023/04/08 12:45:15;;;;;;;18.17;13.63;;;10.80;99.90;;;;;;6218813;23;20432;-90
2023/04/08 12:48:02;;;;;;;18.08;12.60;;;10.70;99.90;;;;;;6198128;23;20029;-90
2023/04/08 12:50:55;;;;;;;15.95;12.00;;;10.70;99.90;;;;;;6219724;23;20028;-90
2023/04/08 12:53:56;;;;;;;17.75;13.65;;;10.80;99.90;;;;;;6217782;23;20101;-90
2023/04/08 12:56:47;;;;;;;17.92;13.65;;;10.40;99.90;;;;;;6219401;23;20090;-90
2023/04/08 12:59:36;;;;;;;16.15;13.18;;;10.20;99.90;;;;;;6200182;23;20448;-89
2023/04/08 13:02:25;;;;;;;16.55;12.98;;;10.20;99.90;;;;;;6227891;23;20031;-90
2023/04/08 13:05:17;;;;;;;20.23;13.63;;;10.20;99.90;;;;;;6204881;23;20029;-92
2023/04/08 13:08:12;;;;;;;20.83;14.48;;;10.00;99.90;;;;;;6221019;23;20094;-90
2023/04/08 13:11:01;;;;;;;20.10;13.93;;;9.80;99.90;;;;;;6219127;23;20020;-89
2023/04/08 13:13:48;;;;;;;18.83;14.52;;;9.80;99.90;;;;;;6220195;23;20032;-90
2023/04/08 13:16:38;;;;;;;19.30;13.82;;;9.70;99.90;;;;;;6216390;23;20029;-91
2023/04/08 13:19:26;;;;;;;20.60;14.95;;;9.60;99.90;;;;;;6197432;23;20037;-92
2023/04/08 13:22:14;;;;;;;22.20;14.18;;;9.60;99.90;;;;;;6219885;23;20112;-91
2023/04/08 13:25:05;;;;;;;20.95;14.25;;;9.60;99.90;;;;;;6196274;23;20028;-91
2023/04/08 13:27:55;;;;;;;21.63;14.50;;;9.60;99.90;;;;;;6219703;23;20092;-90
2023/04/08 13:30:42;;;;;;;19.35;15.13;;;9.60;99.90;;;;;;6218446;23;20031;-90
2023/04/08 13:33:30;;;;;;;20.85;14.63;;;9.60;99.90;;;;;;6217980;23;20024;-90
2023/04/08 13:36:20;;;;;;;20.67;14.80;;;9.60;99.90;;;;;;6217414;23;20021;-90
2023/04/08 13:39:09;;;;;;;19.77;14.05;;;9.70;99.90;;;;;;6216392;23;20024;-89
2023/04/08 13:41:58;;;;;;;23.02;15.15;;;9.70;99.90;;;;;;6176341;23;20404;-89
2023/04/08 13:44:46;;;;;;;19.25;14.18;;;9.80;99.90;;;;;;6217688;23;20028;-89
2023/04/08 13:47:33;;;;;;;20.08;15.38;;;9.70;99.90;;;;;;6197670;23;20021;-89
2023/04/08 13:50:26;;;;;;;21.15;14.70;;;9.80;99.90;;;;;;6218407;23;20025;-91
2023/04/08 13:53:13;;;;;;;17.23;14.48;;;9.90;99.90;;;;;;6218842;23;20495;-88
2023/04/08 13:56:04;;;;;;;19.23;14.32;;;10.00;99.90;;;;;;6196747;23;20099;-89
2023/04/08 13:58:52;;;;;;;17.60;14.50;;;10.10;99.90;;;;;;6218386;23;20043;-89
2023/04/08 14:01:43;;;;;;;18.38;13.63;;;10.20;99.90;;;;;;6197782;23;20024;-90
2023/04/08 14:04:31;;;;;;;18.27;14.05;;;10.40;99.90;;;;;;6219914;23;20335;-90
2023/04/08 14:07:19;;;;;;;18.48;14.82;;;10.30;99.90;;;;;;6220263;23;20032;-88
2023/04/08 14:10:07;;;;;;;18.95;14.60;;;10.20;99.90;;;;;;6204252;23;20035;-91
2023/04/08 14:12:54;;;;;;;18.73;13.93;;;10.30;99.90;;;;;;6189926;23;20032;-89
2023/04/08 14:15:46;;;;;;;21.35;13.93;;;10.20;99.90;;;;;;6232686;23;20438;-88
2023/04/08 14:18:33;;;;;;;18.92;13.90;;;10.30;99.90;;;;;;6243139;23;20027;-88
2023/04/08 14:21:21;;;;;;;19.90;14.02;;;10.30;99.90;;;;;;6221187;23;20036;-91
2023/04/08 14:24:09;;;;;;;19.75;13.82;;;10.30;99.90;;;;;;6242500;23;20012;-89
2023/04/08 14:27:00;;;;;;;18.23;13.95;;;10.30;99.90;;;;;;6220511;23;20020;-90
2023/04/08 14:29:48;;;;;;;19.77;13.65;;;10.20;99.90;;;;;;6240847;23;20020;-89
2023/04/08 14:32:35;;;;;;;20.75;14.23;;;10.30;99.90;;;;;;6234269;23;20021;-89
2023/04/08 14:35:23;;;;;;;17.38;13.80;;;10.30;99.90;;;;;;6232333;22;20086;-90
2023/04/08 14:38:10;;;;;;;20.00;13.88;;;10.40;99.90;;;;;;6206743;23;20039;-91
2023/04/08 14:40:57;;;;;;;15.50;12.35;;;10.50;99.90;;;;;;6232739;23;20083;-90
2023/04/08 14:43:45;;;;;;;18.20;13.88;;;10.90;99.90;;;;;;6197059;23;20320;-91
2023/04/08 14:46:32;;;;;;;16.33;13.63;;;11.10;99.90;;;;;;6216387;23;20025;-89
2023/04/08 14:49:24;;;;;;;17.20;13.27;;;11.00;99.90;;;;;;6218311;23;20024;-91
2023/04/08 14:52:11;;;;;;;17.08;13.30;;;10.80;99.90;;;;;;6214691;23;20089;-91
2023/04/08 14:54:59;;;;;;;18.25;13.38;;;10.60;99.90;;;;;;6195517;23;20099;-90
2023/04/08 14:57:46;;;;;;;21.38;13.48;;;10.40;99.90;;;;;;6217813;23;20148;-89
2023/04/08 15:00:37;;;;;;;19.50;13.05;;;10.30;99.90;;;;;;6220441;23;20052;-89
2023/04/08 15:03:26;;;;;;;17.35;13.48;;;10.20;99.90;;;;;;6221624;23;20028;-90
2023/04/08 15:06:16;;;;;;;21.10;14.43;;;10.10;99.90;;;;;;6221093;23;20021;-89
2023/04/08 15:09:04;;;;;;;18.85;13.85;;;10.20;99.90;;;;;;6203764;23;20033;-88
2023/04/08 15:11:57;;;;;;;18.25;13.48;;;10.40;99.90;;;;;;6203429;23;20028;-90
2023/04/08 15:14:44;;;;;;;22.33;13.95;;;10.60;99.90;;;;;;6203445;23;20082;-91
2023/04/08 15:17:32;;;;;;;17.90;13.38;;;11.10;99.90;;;;;;6204526;23;20092;-90
2023/04/08 15:20:20;;;;;;;18.63;13.48;;;11.60;99.90;;;;;;6204624;23;20039;-90
2023/04/08 15:23:08;;;;;;;17.90;12.45;;;11.70;99.90;;;;;;6201952;23;20028;-87
2023/04/08 15:25:58;;;;;;;16.67;12.43;;;11.60;99.90;;;;;;6225234;22;20090;-89
2023/04/08 15:28:48;;;;;;;18.45;12.70;;;11.40;99.90;;;;;;6224796;23;20301;-89
2023/04/08 15:31:36;;;;;;;19.58;13.57;;;11.10;99.90;;;;;;6223838;23;20424;-90
2023/04/08 15:34:27;;;;;;;17.42;12.77;;;10.90;99.90;;;;;;6206669;23;20035;-89
2023/04/08 15:37:17;;;;;;;16.65;13.27;;;10.60;99.90;;;;;;6202129;23;20100;-89
2023/04/08 15:40:05;;;;;;;15.57;12.02;;;10.30;99.90;;;;;;6222560;23;20311;-91
2023/04/08 15:42:56;;;;;;;17.58;12.38;;;10.10;99.90;;;;;;6203974;23;20058;-89
2023/04/08 15:45:45;;;;;;;15.52;11.95;;;9.90;99.90;;;;;;6206538;23;20428;-89
2023/04/08 15:48:32;;;;;;;15.23;11.43;;;9.70;99.90;;;;;;6226056;23;20021;-90
2023/04/08 15:51:20;;;;;;;18.10;13.35;;;9.60;99.90;;;;;;6211423;23;20013;-86
2023/04/08 15:54:10;;;;;;;20.25;12.68;;;9.50;99.90;;;;;;6224557;23;20028;-89
2023/04/08 15:56:58;;;;;;;19.98;13.73;;;9.40;99.90;;;;;;6205277;23;20021;-88
2023/04/08 15:59:45;;;;;;;22.35;14.32;;;9.30;99.90;;;;;;6226031;23;20021;-89
2023/04/08 16:02:34;;;;;;;17.65;13.85;;;9.30;99.90;;;;;;6232649;23;20025;-87
2023/04/08 16:05:22;;;;;;;18.88;12.93;;;9.30;99.90;;;;;;6227161;23;20328;-88
2023/04/08 16:08:10;;;;;;;15.75;11.68;;;9.30;99.90;;;;;;6221386;23;20024;-91
2023/04/08 16:11:02;;;;;;;18.65;12.13;;;9.30;99.90;;;;;;6200626;23;20405;-90
2023/04/08 16:13:51;;;;;;;16.05;11.80;;;9.30;99.90;;;;;;6222980;23;20024;-89
2023/04/08 16:16:43;;;;;;;15.05;9.93;;;9.20;99.90;;;;;;6222879;23;20028;-87
2023/04/08 16:19:31;;;;;;;;;;;9.20;99.90;;;;;;6222794;23;20033;-88
2023/04/08 16:22:18;;;;;;;13.88;9.30;;;9.20;99.90;;;;;;6203903;23;20299;-91
2023/04/08 16:25:06;;;;;;;15.02;9.80;;;9.20;99.90;;;;;;6204262;23;20028;-89
2023/04/08 16:27:54;;;;;;;17.27;9.73;;;9.10;99.90;;;;;;6226700;23;20025;-89
2023/04/08 16:30:42;;;;;;;12.15;8.80;;;9.20;99.90;;;;;;6202510;23;20024;-90
2023/04/08 16:33:30;;;;;;;11.15;8.32;;;9.20;99.90;;;;;;6221709;23;20027;-88
2023/04/08 16:36:19;;;;;;;10.25;8.18;;;9.10;99.90;;;;;;6200038;23;20031;-90
2023/04/08 16:39:06;;;;;;;13.10;8.40;;;9.10;99.90;;;;;;6222419;23;20099;-89
2023/04/08 16:41:54;;;;;;;13.73;9.38;;;9.00;99.90;;;;;;6232808;23;20043;-89
2023/04/08 16:44:41;;;;;;;9.35;7.65;;;9.00;99.90;;;;;;6200953;23;20024;-88
2023/04/08 16:47:29;;;;;;;11.95;8.70;;;9.00;99.90;;;;;;6198717;23;20103;-90
2023/04/08 16:50:17;;;;;;;11.45;8.10;;;8.90;99.90;;;;;;6219637;23;20025;-90
2023/04/08 16:53:04;;;;;;;9.77;7.35;;;8.90;99.90;;;;;;6200539;23;20576;-89
2023/04/08 16:55:53;;;;;;;12.25;7.82;;;8.80;99.90;;;;;;6197282;23;20031;-89
2023/04/08 16:58:41;;;;;;;11.07;7.60;;;8.70;99.90;;;;;;6220424;23;20038;-92
2023/04/08 17:01:31;;;;;;;12.77;8.35;;;8.60;99.90;;;;;;6197502;23;20032;-89
2023/04/08 17:04:20;;;;;;;9.70;8.00;;;8.60;99.90;;;;;;6218605;23;20593;-90
2023/04/08 17:07:10;;;;;;;8.70;7.32;;;8.50;99.90;;;;;;6220710;23;20403;-89
2023/04/08 17:10:00;;;;;;;12.65;7.70;;;8.50;99.90;;;;;;6201142;23;20070;-90
2023/04/08 17:12:48;;;;;;;9.80;7.05;;;8.50;99.90;;;;;;6199777;23;20044;-92
2023/04/08 17:15:36;;;;;;;12.60;7.18;;;8.50;99.90;;;;;;6218637;23;20025;-90
2023/04/08 17:18:24;;;;;;;14.07;7.43;;;8.40;99.90;;;;;;6221676;23;20447;-90
2023/04/08 17:21:12;;;;;;;13.02;8.18;;;8.30;99.90;;;;;;6218796;23;20092;-91
2023/04/08 17:24:00;;;;;;;11.18;8.07;;;8.30;99.90;;;;;;6198226;23;20032;-89
2023/04/08 17:26:48;;;;;;;9.43;7.35;;;8.20;99.90;;;;;;6220935;23;20038;-89
2023/04/08 17:29:35;;;;;;;8.75;6.32;;;8.10;99.90;;;;;;6219650;23;20308;-92
2023/04/08 17:32:23;;;;;;;12.88;8.25;;;8.10;99.90;;;;;;6204163;23;20088;-91
2023/04/08 17:35:13;;;;;;;13.93;8.50;;;8.10;99.90;;;;;;6197849;23;20420;-89
2023/04/08 17:38:02;;;;;;;10.00;7.63;;;8.10;99.90;;;;;;6221036;23;20060;-90
2023/04/08 17:40:51;;;;;;;11.75;7.70;;;8.00;99.90;;;;;;6218165;23;20029;-91
2023/04/08 17:43:38;;;;;;;9.38;7.22;;;7.90;99.90;;;;;;6217948;23;20032;-89
2023/04/08 17:46:26;;;;;;;12.25;7.82;;;7.90;99.90;;;;;;6196360;23;20032;-91
2023/04/08 17:49:16;;;;;;;10.52;8.10;;;7.90;99.90;;;;;;6196930;23;20032;-89
2023/04/08 17:52:04;;;;;;;12.48;7.93;;;7.80;99.90;;;;;;6219571;23;20086;-89
2023/04/08 17:54:53;;;;;;;9.18;7.68;;;7.70;99.90;;;;;;6178393;23;20024;-89
2023/04/08 17:57:40;;;;;;;11.00;7.55;;;7.70;99.90;;;;;;6218366;23;20499;-91
2023/04/08 18:00:31;;;;;;;10.40;8.48;;;7.70;99.90;;;;;;6199642;23;20029;-89
2023/04/08 18:03:19;;;;;;;15.18;10.52;;;7.60;1.00;;;;;;6201023;23;20040;-90
2023/04/08 18:06:07;;;;;;;13.02;10.25;;;7.40;1.00;;;;;;6204154;23;20024;-90
2023/04/08 18:08:55;;;;;;;12.40;9.98;;;7.30;1.00;;;;;;6201627;23;20017;-90
2023/04/08 18:11:42;;;;;;;12.48;9.82;;;7.20;1.00;;;;;;6199852;23;20440;-90
2023/04/08 18:14:30;;;;;;;13.10;10.05;;;7.00;1.00;;;;;;6218891;23;20029;-90
2023/04/08 18:17:21;;;;;;;15.82;10.85;;;6.90;99.90;;;;;;6218192;23;20020;-91
2023/04/08 18:20:08;;;;;;;15.93;11.23;;;6.90;99.90;;;;;;6204522;23;20043;-90
2023/04/08 18:22:56;;;;;;;16.45;11.43;;;6.80;99.90;;;;;;6202362;23;20028;-89
2023/04/08 18:25:46;;;;;;;13.20;10.07;;;6.80;99.90;;;;;;6219977;23;20043;-90
2023/04/08 18:28:36;;;;;;;14.32;9.93;;;6.80;99.90;;;;;;6220329;23;20027;-89
2023/04/08 18:31:23;;;;;;;15.20;10.98;;;6.70;99.90;;;;;;6196430;23;20415;-89
2023/04/08 18:34:11;;;;;;;13.40;10.85;;;6.70;99.90;;;;;;6217841;23;20056;-92
2023/04/08 18:36:59;;;;;;;17.27;10.32;;;6.60;99.90;;;;;;6195492;23;20029;-91
2023/04/08 18:39:47;;;;;;;20.15;15.00;;;6.60;99.90;;;;;;6196052;23;20028;-91
2023/04/08 18:42:36;;;;;;;18.20;13.10;;;6.60;99.90;;;;;;6220035;23;20032;-90
2023/04/08 18:45:23;;;;;;;18.30;13.85;;;6.60;99.90;;;;;;6217300;23;20032;-89
2023/04/08 18:48:11;;;;;;;16.00;12.63;;;6.60;99.90;;;;;;6219376;23;20024;-89
2023/04/08 18:51:00;;;;;;;16.63;13.07;;;6.60;99.90;;;;;;6215418;23;20458;-88
2023/04/08 18:53:48;;;;;;;18.75;13.98;;;6.60;99.90;;;;;;6219036;23;20020;-90
2023/04/08 18:56:36;;;;;;;23.40;12.88;;;6.50;99.90;;;;;;6222986;23;20331;-87
2023/04/08 18:59:23;;;;;;;21.25;14.73;;;6.60;99.90;;;;;;6197687;23;20024;-90
2023/04/08 19:02:13;;;;;;;24.95;17.20;;;6.60;99.90;;;;;;6219223;23;20028;-90
2023/04/08 19:05:00;;;;;;;31.77;19.45;;;6.60;99.90;;;;;;6231407;23;20035;-89
2023/04/08 19:07:48;;;;;;;21.23;15.27;;;6.60;99.90;;;;;;6220297;23;20028;-91
2023/04/08 19:10:36;;;;;;;19.67;12.65;;;6.50;99.90;;;;;;6220679;23;20093;-91
2023/04/08 19:13:23;;;;;;;17.63;12.10;;;6.50;99.90;;;;;;6231210;23;20021;-89
2023/04/08 19:16:11;;;;;;;15.55;12.55;;;6.50;99.90;;;;;;6212878;23;20024;-88
2023/04/08 19:18:59;;;;;;;16.75;12.57;;;6.60;99.90;;;;;;6202305;23;20024;-90
2023/04/08 19:21:47;;;;;;;17.75;12.55;;;6.60;99.90;;;;;;6220874;23;20029;-89
2023/04/08 19:24:35;;;;;;;15.50;11.80;;;6.50;99.90;;;;;;6219835;23;20306;-89
2023/04/08 19:27:23;;;;;;;13.70;11.27;;;6.50;99.90;;;;;;6225588;23;20076;-91
2023/04/08 19:30:10;;;;;;;14.45;11.43;;;6.50;99.90;;;;;;6223357;23;20024;-90
2023/04/08 19:32:58;;;;;;;16.30;11.85;;;6.40;99.90;;;;;;6219892;23;20521;-90
2023/04/08 19:35:48;;;;;;;15.32;11.38;;;6.50;99.90;;;;;;6216964;23;20621;-89
2023/04/08 19:38:35;;;;;;;19.95;11.68;;;6.40;99.90;;;;;;6194196;23;20325;-90
2023/04/08 19:41:23;;;;;;;18.02;11.43;;;6.40;99.90;;;;;;6217279;23;20080;-90
2023/04/08 19:44:11;;;;;;;17.67;11.73;;;6.40;99.90;;;;;;6220140;23;20312;-89
2023/04/08 19:47:01;;;;;;;15.95;11.82;;;6.40;99.90;;;;;;6196371;23;20025;-92
2023/04/08 19:49:50;;;;;;;17.83;12.18;;;6.40;99.90;;;;;;6218478;23;20033;-90
2023/04/08 19:52:38;;;;;;;15.95;12.52;;;6.40;99.90;;;;;;6208909;23;20040;-91
2023/04/08 19:55:25;;;;;;;15.75;11.30;;;6.40;99.90;;;;;;6198429;23;20036;-90
2023/04/08 19:58:13;;;;;;;13.82;10.77;;;6.40;99.90;;;;;;6217412;23;20024;-90
2023/04/08 20:01:01;;;;;;;17.65;12.55;;;6.40;99.90;;;;;;6219094;23;20055;-90
2023/04/08 20:03:49;;;;;;;14.30;12.27;;;6.40;99.90;;;;;;6217148;23;20032;-91
2023/04/08 20:06:37;;;;;;;15.32;12.55;;;6.30;99.90;;;;;;6219954;23;20033;-90
2023/04/08 20:09:27;;;;;;;14.98;11.70;;;6.40;99.90;;;;;;6222254;23;20045;-90
2023/04/08 20:12:15;;;;;;;15.70;12.10;;;6.40;99.90;;;;;;6199350;23;20098;-90
2023/04/08 20:15:03;;;;;;;22.00;13.93;;;6.40;99.90;;;;;;6198079;23;20048;-89
2023/04/08 20:17:55;;;;;;;21.30;16.13;;;6.40;99.90;;;;;;6217543;23;20035;-91
2023/04/08 20:20:43;;;;;;;19.05;14.23;;;6.40;99.90;;;;;;6195999;23;20025;-88
2023/04/08 20:23:30;;;;;;;19.48;13.93;;;6.40;99.90;;;;;;6219912;23;20024;-88
2023/04/08 20:26:17;;;;;;;20.02;13.60;;;6.40;99.90;;;;;;6217526;23;20024;-88
2023/04/08 20:29:05;;;;;;;19.10;14.15;;;6.40;99.90;;;;;;6217982;23;20028;-91
2023/04/08 20:31:52;;;;;;;30.58;17.48;;;6.30;99.90;;;;;;6195029;23;20327;-91
2023/04/08 20:34:40;;;;;;;22.20;16.73;;;6.30;99.90;;;;;;6229984;23;20021;-90
2023/04/08 20:37:30;;;;;;;23.25;16.35;;;6.30;99.90;;;;;;6203579;23;20035;-89
2023/04/08 20:40:18;;;;;;;18.88;14.68;;;6.30;99.90;;;;;;6202828;23;20293;-91
2023/04/08 20:43:06;;;;;;;19.58;14.90;;;6.30;99.90;;;;;;6223533;23;20031;-90
2023/04/08 20:45:53;;;;;;;20.27;14.77;;;6.30;99.90;;;;;;6202091;23;20025;-92
2023/04/08 20:48:41;;;;;;;23.23;15.50;;;6.30;99.90;;;;;;6221060;23;20028;-89
2023/04/08 20:51:32;;;;;;;23.55;15.60;;;6.30;99.90;;;;;;6224268;23;20024;-89
2023/04/08 20:54:20;;;;;;;24.10;17.05;;;6.20;99.90;;;;;;6199389;23;20339;-90
2023/04/08 20:57:08;;;;;;;23.95;16.58;;;6.20;99.90;;;;;;6220785;23;20411;-89
2023/04/08 20:59:55;;;;;;;22.83;16.75;;;6.20;99.90;;;;;;6217071;23;20040;-89
2023/04/08 21:02:46;;;;;;;27.17;17.75;;;6.20;99.90;;;;;;6217193;23;20024;-89
2023/04/08 21:05:37;;;;;;;24.98;16.60;;;6.20;99.90;;;;;;6215986;23;20035;-88
2023/04/08 21:08:24;;;;;;;24.42;15.93;;;6.20;99.90;;;;;;6195888;23;20028;-88
2023/04/08 21:11:12;;;;;;;20.27;14.40;;;6.10;99.90;;;;;;6216104;23;20025;-90
2023/04/08 21:13:59;;;;;;;15.52;12.52;;;6.10;99.90;;;;;;6224317;23;20021;-88
2023/04/08 21:16:47;;;;;;;17.08;13.18;;;6.10;99.90;;;;;;6200651;23;20039;-89
2023/04/08 21:19:34;;;;;;;19.08;13.65;;;6.10;99.90;;;;;;6224388;23;20028;-89
2023/04/08 21:22:32;;;;;;;17.17;13.23;;;6.10;99.90;;;;;;6226404;23;20147;-90
2023/04/08 21:25:25;;;;;;;17.65;13.48;;;6.00;99.90;;;;;;6200764;23;20086;-89
2023/04/08 21:28:12;;;;;;;16.05;12.95;;;6.00;99.90;;;;;;6201332;23;20055;-89
2023/04/08 21:31:11;;;;;;;18.42;13.95;;;6.00;99.90;;;;;;6208967;23;20039;-90
2023/04/08 21:34:11;;;;;;;;;;;;;;;;;;;;;
2023/04/08 21:37:30;;;;;;;20.45;15.05;;;6.00;1.00;;;;;;6238625;23;20063;-91
2023/04/08 21:40:28;;;;;;;17.73;13.50;;;6.00;1.00;;;;;;6238424;23;20025;-91
2023/04/08 21:43:23;;;;;;;20.92;15.50;;;5.90;1.00;;;;;;6210668;23;20044;-90
2023/04/08 21:46:14;;;;;;;25.45;16.05;;;5.90;1.00;;;;;;6203515;23;20110;-91
2023/04/08 21:49:07;;;;;;;21.27;14.82;;;5.90;1.00;;;;;;6202616;23;20021;-90
2023/04/08 21:52:20;;;;;;;23.48;16.92;;;5.80;1.00;;;;;;6205990;23;20080;-90
2023/04/08 21:55:09;;;;;;;16.92;12.90;;;5.80;1.00;;;;;;6131505;23;20033;-88
2023/04/08 21:57:57;;;;;;;23.13;16.55;;;5.70;1.00;;;;;;6196507;23;20581;-90
2023/04/08 22:00:46;;;;;;;23.38;17.17;;;5.70;1.00;;;;;;6215792;23;20435;-90
2023/04/08 22:03:34;;;;;;;24.45;17.65;;;5.60;1.00;;;;;;6197190;23;20431;-93
2023/04/08 22:06:26;;;;;;;22.85;17.08;;;5.50;1.00;;;;;;6219479;23;20466;-92
2023/04/08 22:09:19;;;;;;;23.88;17.75;;;5.40;1.00;;;;;;6198107;23;20032;-92
2023/04/08 22:12:08;;;;;;;27.50;18.98;;;5.30;1.00;;;;;;6202289;23;20021;-88
2023/04/08 22:14:56;;;;;;;29.80;19.70;;;5.20;26.70;;;;;;6220895;23;20367;-90
2023/04/08 22:17:49;;;;;;;28.40;18.58;;;5.00;99.90;;;;;;6218059;23;20020;-88
2023/04/08 22:20:37;;;;;;;26.52;19.48;;;4.90;99.90;;;;;;6215991;23;20059;-90
2023/04/08 22:23:25;;;;;;;26.02;18.50;;;4.70;99.90;;;;;;6198204;23;20039;-89
2023/04/08 22:26:12;;;;;;;27.25;19.38;;;4.60;1.00;;;;;;6219252;23;20060;-93
2023/04/08 22:29:01;;;;;;;28.45;20.40;;;4.50;99.90;;;;;;6219499;23;20059;-91
2023/04/08 22:31:51;;;;;;;32.65;22.80;;;4.50;66.10;;;;;;6196201;23;20032;-90